KLOR/LOR METAR and TAF weather

Enter ICAO airport designator
Station Type Date Time Source
KLOR METAR 2019/08/19 01:23 UTC NOAA

KLOR 190123Z AUTO 00000KT 10SM FEW029 26/26 A2999 RMK AO2 LTG DSNT S-SW SLP136


Station Type Date Time Source
KLOR Decoded METAR 2019/08/19 01:23 UTC NOAA

Station name not available
Aug 18, 2019 - 09:23 PM EDT / 2019.08.19 0123 UTC
Wind: Calm:0
Visibility: 10 mile(s):0
Sky conditions: mostly clear
Weather: Lightning observed
Temperature: 78 F (26 C)
Dew Point: 78 F (26 C)
Relative Humidity: 100%
Pressure (altimeter): 29.99 in. Hg (1015 hPa)
ob: KLOR 190123Z AUTO 00000KT 10SM FEW029 26/26 A2999 RMK AO2 LTG DSNT S-SW SLP136
cycle: 1

Station Type Date Time Source
KLOR TAF UTC NOAA

Error!

Example: see airport list